createdAt,value
2023-04-05T00:01:20.005Z,-1.81
2023-04-05T00:03:54.508Z,-1.60
2023-04-05T00:06:30.027Z,-1.39
2023-04-05T00:09:05.202Z,-1.15
2023-04-05T00:11:37.108Z,-1.08
2023-04-05T00:14:04.623Z,-1.08
2023-04-05T00:16:31.841Z,-0.94
2023-04-05T00:19:00.126Z,-0.94
2023-04-05T00:21:26.844Z,-0.77
2023-04-05T00:23:59.738Z,-0.56
2023-04-05T00:26:33.289Z,-0.50
2023-04-05T00:28:59.915Z,-0.33
2023-04-05T00:31:26.527Z,-0.23
2023-04-05T00:33:53.276Z,-0.16
2023-04-05T00:36:23.425Z,-0.06
2023-04-05T00:38:50.193Z,-0.05
2023-04-05T00:41:17.187Z,0.00
2023-04-05T00:43:44.361Z,-0.02
2023-04-05T00:46:11.456Z,-0.02
2023-04-05T00:48:42.006Z,0.01
2023-04-05T00:51:14.244Z,0.06
2023-04-05T00:53:44.948Z,0.06
2023-04-05T00:56:16.810Z,0.07
2023-04-05T00:58:43.546Z,0.06
2023-04-05T01:01:24.408Z,0.02
2023-04-05T01:04:02.713Z,0.04
2023-04-05T01:07:28.893Z,0.03
2023-04-05T01:10:03.027Z,0.13
2023-04-05T01:12:43.555Z,0.23
2023-04-05T01:15:16.078Z,0.26
2023-04-05T01:17:42.886Z,0.28
2023-04-05T01:20:15.073Z,0.30
2023-04-05T01:23:37.942Z,0.31
2023-04-05T01:26:46.062Z,0.33
2023-04-05T01:30:06.847Z,0.36
2023-04-05T01:33:19.188Z,0.37
2023-04-05T01:36:33.937Z,0.33
2023-04-05T01:39:06.196Z,0.38
2023-04-05T01:41:33.399Z,0.37
2023-04-05T01:44:00.229Z,0.36
2023-04-05T01:46:26.871Z,0.34
2023-04-05T01:48:53.565Z,0.31
2023-04-05T01:51:21.021Z,0.30
2023-04-05T01:53:47.801Z,0.29
2023-04-05T01:56:20.893Z,0.30
2023-04-05T01:58:47.765Z,0.37
2023-04-05T02:01:14.657Z,0.41
2023-04-05T02:03:44.655Z,0.48
2023-04-05T02:06:11.999Z,0.51
2023-04-05T02:08:38.689Z,0.52
2023-04-05T02:11:05.509Z,0.52
2023-04-05T02:13:34.788Z,0.51
2023-04-05T02:16:06.387Z,0.46
2023-04-05T02:18:38.667Z,0.44
2023-04-05T02:21:10.748Z,0.40
2023-04-05T02:23:38.153Z,0.38
2023-04-05T02:26:05.374Z,0.38
2023-04-05T02:28:34.484Z,0.36
2023-04-05T02:31:11.178Z,0.35
2023-04-05T02:33:44.015Z,0.36
2023-04-05T02:36:21.068Z,0.36
2023-04-05T02:38:53.039Z,0.36
2023-04-05T02:41:23.900Z,0.34
2023-04-05T02:43:56.599Z,0.25
2023-04-05T02:46:23.462Z,0.22
2023-04-05T02:48:52.642Z,0.22
2023-04-05T02:51:22.370Z,0.20
2023-04-05T02:53:49.247Z,0.19
2023-04-05T02:56:22.147Z,0.20
2023-04-05T02:58:49.337Z,0.28
2023-04-05T03:01:17.875Z,0.32
2023-04-05T03:03:44.646Z,0.31
2023-04-05T03:06:19.246Z,0.29
2023-04-05T03:08:47.632Z,0.22
2023-04-05T03:11:15.362Z,0.19
2023-04-05T03:13:45.103Z,0.19
2023-04-05T03:16:26.769Z,0.20
2023-04-05T03:18:53.539Z,0.15
2023-04-05T03:21:23.554Z,0.17
2023-04-05T03:23:50.396Z,0.21
2023-04-05T03:26:24.587Z,0.27
2023-04-05T03:28:53.316Z,0.30
2023-04-05T03:31:23.393Z,0.30
2023-04-05T03:33:50.329Z,0.29
2023-04-05T03:36:17.829Z,0.23
2023-04-05T03:38:48.308Z,0.12
2023-04-05T03:41:17.352Z,0.00
2023-04-05T03:43:44.131Z,-0.12
2023-04-05T03:46:10.989Z,-0.28
2023-04-05T03:48:49.261Z,-0.43
2023-04-05T03:51:16.541Z,-0.60
2023-04-05T03:53:43.337Z,-0.79
2023-04-05T03:56:10.552Z,-0.97
2023-04-05T03:58:38.595Z,-1.16
2023-04-05T04:01:08.547Z,-1.27
2023-04-05T04:03:37.442Z,-1.38
2023-04-05T04:06:08.401Z,-1.38
2023-04-05T04:08:37.882Z,-1.27
2023-04-05T04:11:04.734Z,-1.20
2023-04-05T04:13:31.509Z,-1.31
2023-04-05T04:16:07.368Z,-1.26
2023-04-05T04:18:46.695Z,-1.32
2023-04-05T04:21:16.932Z,-1.32
2023-04-05T04:23:45.991Z,-1.30
2023-04-05T04:26:14.243Z,-1.31
2023-04-05T04:28:43.996Z,-1.52
2023-04-05T04:31:13.758Z,-1.62
2023-04-05T04:33:44.831Z,-1.59
2023-04-05T04:36:17.340Z,-1.61
2023-04-05T04:38:46.088Z,-1.66
2023-04-05T04:41:20.176Z,-1.74
2023-04-05T04:43:46.880Z,-1.71
2023-04-05T04:46:17.501Z,-1.74
2023-04-05T04:48:44.263Z,-1.82
2023-04-05T04:51:11.067Z,-1.84
2023-04-05T04:53:48.790Z,-1.84
2023-04-05T04:59:00.133Z,-1.74
2023-04-05T05:01:26.957Z,-1.72
2023-04-05T05:03:53.660Z,-1.66
2023-04-05T05:06:22.075Z,-1.69
2023-04-05T05:08:50.404Z,-1.64
2023-04-05T05:11:19.289Z,-1.53
2023-04-05T05:13:49.608Z,-1.44
2023-04-05T05:16:22.492Z,-1.34
2023-04-05T05:18:55.039Z,-1.36
2023-04-05T05:24:02.545Z,-1.48
2023-04-05T05:26:29.156Z,-1.52
2023-04-05T05:28:56.506Z,-1.53
2023-04-05T05:31:23.752Z,-1.45
2023-04-05T05:33:51.113Z,-1.42
2023-04-05T05:36:19.751Z,-1.31
2023-04-05T05:38:47.571Z,-1.16
2023-04-05T05:41:21.332Z,-1.03
2023-04-05T05:43:48.257Z,-0.90
2023-04-05T05:46:23.859Z,-0.84
2023-04-05T05:48:50.517Z,-0.77
2023-04-05T05:51:18.163Z,-0.66
2023-04-05T06:43:15.509Z,2.13
2023-04-05T06:45:47.688Z,2.28
2023-04-05T06:48:21.311Z,2.42
2023-04-05T06:50:48.155Z,2.52
2023-04-05T06:53:18.212Z,2.56
2023-04-05T06:55:53.312Z,2.65
2023-04-05T06:58:22.380Z,2.75
2023-04-05T07:00:51.029Z,2.85
2023-04-05T07:03:19.015Z,3.00
2023-04-05T07:06:02.897Z,3.16
2023-04-05T07:08:33.376Z,3.31
2023-04-05T07:11:13.948Z,3.39
2023-04-05T07:13:51.094Z,3.52
2023-04-05T07:16:23.883Z,3.62
2023-04-05T07:18:51.126Z,3.80
2023-04-05T07:21:17.909Z,4.02
2023-04-05T07:23:47.046Z,4.24
2023-04-05T07:26:13.816Z,4.45
2023-04-05T07:28:48.616Z,4.65
2023-04-05T07:31:18.063Z,4.83
2023-04-05T07:34:02.003Z,4.97
2023-04-05T07:36:35.968Z,5.21
2023-04-05T07:39:05.340Z,5.48
2023-04-05T07:41:39.245Z,5.58
2023-04-05T07:44:11.842Z,5.60
2023-04-05T07:46:49.109Z,5.66
2023-04-05T07:49:27.761Z,5.86
2023-04-05T07:51:58.851Z,5.91
2023-04-05T07:54:28.427Z,6.01
2023-04-05T07:56:57.051Z,6.17
2023-04-05T08:02:15.061Z,6.33
2023-04-05T08:04:50.149Z,6.30
2023-04-05T08:07:19.242Z,6.32
2023-04-05T08:09:54.264Z,6.38
2023-04-05T08:12:20.987Z,6.27
2023-04-05T08:14:49.961Z,6.39
2023-04-05T08:17:21.610Z,6.41
2023-04-05T08:19:53.085Z,6.56
2023-04-05T08:22:20.577Z,6.63
2023-04-05T08:24:49.583Z,6.67
2023-04-05T08:27:17.054Z,6.79
2023-04-05T08:29:54.112Z,6.88
2023-04-05T08:32:20.779Z,7.03
2023-04-05T08:34:47.538Z,7.23
2023-04-05T08:37:14.229Z,7.19
2023-04-05T08:39:50.086Z,7.37
2023-04-05T08:42:34.072Z,7.62
2023-04-05T08:45:09.169Z,7.91
2023-04-05T08:47:39.132Z,8.01
2023-04-05T08:50:17.170Z,8.15
2023-04-05T08:53:01.881Z,8.31
2023-04-05T08:55:28.749Z,8.61
2023-04-05T08:58:00.889Z,8.96
2023-04-05T09:00:29.166Z,9.45
2023-04-05T09:02:59.806Z,9.65
2023-04-05T09:05:27.743Z,10.01
2023-04-05T09:07:58.487Z,10.09
2023-04-05T09:10:29.485Z,10.11
2023-04-05T09:12:56.708Z,9.96
2023-04-05T09:15:24.362Z,9.89
2023-04-05T09:17:52.497Z,10.10
2023-04-05T09:20:21.989Z,10.59
2023-04-05T09:22:51.459Z,10.60
2023-04-05T09:25:52.679Z,10.86
2023-04-05T09:28:20.681Z,10.39
2023-04-05T09:30:47.894Z,10.56
2023-04-05T09:33:24.538Z,10.71
2023-04-05T09:35:51.885Z,10.89
2023-04-05T09:38:48.604Z,11.11
2023-04-05T09:41:18.304Z,11.00
2023-04-05T09:43:48.099Z,11.36
2023-04-05T09:46:38.648Z,11.62
2023-04-05T09:49:07.854Z,11.60
2023-04-05T09:51:47.642Z,11.60
2023-04-05T09:54:14.963Z,12.33
2023-04-05T09:56:57.713Z,12.35
2023-04-05T09:59:28.148Z,12.32
2023-04-05T10:01:55.080Z,12.64
2023-04-05T10:04:23.148Z,12.75
2023-04-05T10:06:50.981Z,12.91
2023-04-05T10:09:21.271Z,12.83
2023-04-05T10:11:51.030Z,11.95
2023-04-05T10:14:17.784Z,12.47
2023-04-05T10:17:27.833Z,12.39
2023-04-05T10:20:20.982Z,12.09
2023-04-05T10:23:57.734Z,12.20
2023-04-05T10:26:59.567Z,12.55
2023-04-05T10:29:59.395Z,12.84
2023-04-05T10:33:04.118Z,12.88
2023-04-05T10:36:22.381Z,12.98
2023-04-05T10:39:12.442Z,13.36
2023-04-05T10:42:00.225Z,13.66
2023-04-05T10:44:33.361Z,13.98
2023-04-05T10:47:02.599Z,14.04
2023-04-05T10:49:56.304Z,13.21
2023-04-05T10:52:33.978Z,12.21
2023-04-05T10:55:04.633Z,12.49
2023-04-05T10:57:43.764Z,12.81
2023-04-05T11:00:14.160Z,12.80
2023-04-05T11:02:53.655Z,13.35
2023-04-05T11:06:31.781Z,11.93
2023-04-05T11:09:21.019Z,12.08
2023-04-05T11:12:02.041Z,12.50
2023-04-05T11:17:29.359Z,13.11
2023-04-05T11:20:06.548Z,13.31
2023-04-05T11:22:33.577Z,13.28
2023-04-05T11:25:05.412Z,13.10
2023-04-05T11:27:45.261Z,13.36
2023-04-05T11:30:52.897Z,12.69
2023-04-05T11:57:26.064Z,13.82
2023-04-05T12:23:54.095Z,13.88
2023-04-05T12:26:34.591Z,13.96
2023-04-05T12:29:05.306Z,13.50
2023-04-05T12:31:53.266Z,13.74
2023-04-05T12:34:28.069Z,13.85
2023-04-05T12:36:54.796Z,14.12
2023-04-05T12:39:29.106Z,14.35
2023-04-05T12:42:00.821Z,14.15
2023-04-05T12:44:39.040Z,14.01
2023-04-05T12:47:25.128Z,14.40
2023-04-05T12:50:19.183Z,14.62
2023-04-05T12:53:01.768Z,14.99
2023-04-05T12:55:30.663Z,14.51
2023-04-05T12:58:01.991Z,15.15
2023-04-05T13:00:33.701Z,15.71
2023-04-05T13:03:00.670Z,16.10
2023-04-05T13:05:31.325Z,16.11
2023-04-05T13:07:59.621Z,16.12
2023-04-05T13:10:26.671Z,15.96
2023-04-05T13:12:55.969Z,16.76
2023-04-05T13:15:26.216Z,17.13
2023-04-05T13:17:58.437Z,17.76
2023-04-05T13:20:25.294Z,17.82
2023-04-05T13:23:01.201Z,17.76
2023-04-05T13:25:28.003Z,16.31
2023-04-05T13:27:56.619Z,15.56
2023-04-05T13:30:23.726Z,15.99
2023-04-05T13:32:53.171Z,15.96
2023-04-05T13:35:20.830Z,16.50
2023-04-05T13:37:56.466Z,15.79
2023-04-05T13:40:23.409Z,15.84
2023-04-05T13:42:50.174Z,15.72
2023-04-05T13:45:20.457Z,15.21
2023-04-05T13:47:51.796Z,15.53
2023-04-05T13:50:18.696Z,16.05
2023-04-05T13:53:09.424Z,16.27
2023-04-05T13:55:36.104Z,17.17
2023-04-05T13:58:02.759Z,17.58
2023-04-05T14:00:29.687Z,17.88
2023-04-05T14:02:56.978Z,18.16
2023-04-05T14:05:23.830Z,17.74
2023-04-05T14:07:50.627Z,17.46
2023-04-05T14:10:19.675Z,17.61
2023-04-05T14:15:36.260Z,17.57
2023-04-05T14:18:04.936Z,17.69
2023-04-05T14:20:35.689Z,17.25
2023-04-05T14:23:06.624Z,17.80
2023-04-05T14:25:33.464Z,17.83
2023-04-05T14:28:03.741Z,17.10
2023-04-05T14:30:32.718Z,16.07
2023-04-05T14:32:59.877Z,16.54
2023-04-05T14:35:29.599Z,16.52
2023-04-05T14:37:56.704Z,16.43
2023-04-05T14:40:32.707Z,16.82
2023-04-05T14:42:59.799Z,16.71
2023-04-05T14:45:41.808Z,16.71
2023-04-05T14:48:11.798Z,17.33
2023-04-05T14:50:38.747Z,17.48
2023-04-05T14:53:06.743Z,17.60
2023-04-05T14:55:49.806Z,17.32
2023-04-05T14:58:30.470Z,16.60
2023-04-05T15:00:59.640Z,16.35
2023-04-05T15:03:26.798Z,15.88
2023-04-05T15:06:03.991Z,15.02
2023-04-05T15:08:31.774Z,15.96
2023-04-05T15:11:01.868Z,16.29
2023-04-05T15:13:29.026Z,16.47
2023-04-05T15:15:58.980Z,16.73
2023-04-05T15:18:25.900Z,16.89
2023-04-05T15:20:55.518Z,16.48
2023-04-05T15:23:24.746Z,16.33
2023-04-05T15:25:51.689Z,16.50
2023-04-05T15:28:18.738Z,16.45
2023-04-05T15:30:48.493Z,16.28
2023-04-05T15:33:19.006Z,16.07
2023-04-05T15:35:46.366Z,15.86
2023-04-05T15:38:17.498Z,15.16
2023-04-05T15:40:49.548Z,14.69
2023-04-05T15:43:21.795Z,14.71
2023-04-05T15:46:16.723Z,14.46
2023-04-05T15:48:46.889Z,15.19
2023-04-05T17:23:33.819Z,5.07
2023-04-05T17:26:01.460Z,4.93
2023-04-05T18:16:06.043Z,2.34
2023-04-05T18:46:07.679Z,1.60
2023-04-05T19:26:57.170Z,0.20
2023-04-05T19:29:33.039Z,0.19
2023-04-05T19:37:30.917Z,-0.06
2023-04-05T21:09:05.751Z,0.46
2023-04-05T21:11:37.911Z,0.13
2023-04-05T21:14:14.981Z,-0.14
2023-04-05T21:16:55.501Z,-0.34
2023-04-05T21:19:56.237Z,-0.54
2023-04-05T21:22:25.853Z,-0.75
2023-04-05T21:24:52.667Z,-0.79
2023-04-05T21:27:19.381Z,-0.89
2023-04-05T21:29:50.524Z,-0.86
2023-04-05T21:32:25.617Z,-0.90
2023-04-05T21:34:52.550Z,-0.89
2023-04-05T21:37:21.770Z,-0.94
2023-04-05T21:39:48.783Z,-0.95
2023-04-05T21:42:17.861Z,-0.99
2023-04-05T21:44:44.595Z,-0.99
2023-04-05T21:47:11.377Z,-1.03
2023-04-05T21:49:59.077Z,-1.07
2023-04-05T21:52:37.755Z,-1.07
2023-04-05T21:55:14.640Z,-1.09
2023-04-05T21:57:49.862Z,-1.09
2023-04-05T22:00:21.246Z,-1.02
2023-04-05T22:02:48.072Z,-0.98
2023-04-05T22:05:33.787Z,-1.06
2023-04-05T22:08:09.913Z,-1.09
2023-04-05T22:10:43.852Z,-1.06
2023-04-05T22:13:10.931Z,-1.17
2023-04-05T22:15:48.167Z,-1.26
2023-04-05T22:18:15.023Z,-1.35
2023-04-05T22:20:50.615Z,-1.36
2023-04-05T22:23:20.391Z,-1.32
2023-04-05T22:25:47.264Z,-1.35
2023-04-05T22:28:14.248Z,-1.37
2023-04-05T22:30:47.713Z,-1.39
2023-04-05T22:33:15.016Z,-1.33
2023-04-05T22:35:44.949Z,-1.35
2023-04-05T22:38:20.455Z,-1.28
2023-04-05T22:40:49.017Z,-1.31
2023-04-05T22:43:18.839Z,-1.31
2023-04-05T22:45:56.857Z,-1.33
2023-04-05T22:48:23.765Z,-1.37
2023-04-05T22:50:53.407Z,-1.38
2023-04-05T22:53:20.689Z,-1.39
2023-04-05T22:55:47.520Z,-1.35
2023-04-05T22:58:22.237Z,-1.30
2023-04-05T23:00:49.097Z,-1.30
2023-04-05T23:03:16.438Z,-1.27
2023-04-05T23:05:43.351Z,-1.27
2023-04-05T23:08:12.963Z,-1.22
2023-04-05T23:10:44.348Z,-1.14
2023-04-05T23:13:16.592Z,-1.09
2023-04-05T23:15:46.761Z,-1.08
2023-04-05T23:18:22.007Z,-1.12
2023-04-05T23:20:49.799Z,-1.12
2023-04-05T23:23:16.667Z,-1.12
2023-04-05T23:25:43.601Z,-1.17
2023-04-05T23:28:15.911Z,-1.16
2023-04-05T23:30:46.200Z,-1.23
2023-04-05T23:33:13.468Z,-1.31
2023-04-05T23:35:46.882Z,-1.42
2023-04-05T23:38:23.209Z,-1.47
2023-04-05T23:40:50.058Z,-1.52
2023-04-05T23:43:16.806Z,-1.63
2023-04-05T23:45:46.302Z,-1.68
2023-04-05T23:48:18.788Z,-1.78
2023-04-05T23:50:50.361Z,-1.82
2023-04-05T23:53:17.593Z,-1.85
2023-04-05T23:55:46.583Z,-1.89
2023-04-05T23:58:24.052Z,-1.97
